CheckWX is a tool to help pilots better visualize weather data.  It is not intended as a substitute for an official pre-flight weather briefing.

02:47:05 UTC

KIDI METAR
Indiana County / Jimmy Stewart Field / Airport
Indiana, Pennsylvania, USA
Current

32 mins ago

KIDI 210215Z AUTO 09003KT 10SM FEW003 BKN039 OVC045 16/15 A3027 RMK A01
Observed
Sep-21 @ 02:15 UTC
Wind
  • 090° at 3 KTS
Visibility
10 SM
Flight Rules
VFR
Cloud Levels
  • Few at 300' AGL
  • Broken at 3,900' AGL
  • Overcast at 4,500' AGL
Temperature
16°C / 61°F
Dewpoint
15°C / 59°F
Humidity
94%
Altimeter
30.27" Hg
Pressure
1025.02 hPa
Previous

52 mins ago

KIDI 210155Z AUTO 00000KT 10SM BKN039 OVC045 16/14 A3027 RMK A01
Observed
Sep-21 @ 01:55 UTC
Visibility
10 SM
Flight Rules
VFR
Cloud Levels
  • Broken at 3,900' AGL
  • Overcast at 4,500' AGL
Temperature
16°C / 61°F
Dewpoint
14°C / 57°F
Humidity
88%
Altimeter
30.27" Hg
Pressure
1025.02 hPa
Previous

1 hour ago

KIDI 210135Z AUTO 00000KT 10SM BKN041 16/15 A3027 RMK A01
Observed
Sep-21 @ 01:35 UTC
Visibility
10 SM
Flight Rules
VFR
Cloud Levels
  • Broken at 4,100' AGL
Temperature
16°C / 61°F
Dewpoint
15°C / 59°F
Humidity
94%
Altimeter
30.27" Hg
Pressure
1025.02 hPa